sensor_id;sensor_type;location;lat;lon;timestamp;P1;durP1;ratioP1;P2;durP2;ratioP2
64520;SDS011;50896;46.714;17.322;2023-04-03T00:00:38;3.10;;;2.35;;
64520;SDS011;50896;46.714;17.322;2023-04-03T00:03:05;4.65;;;2.63;;
64520;SDS011;50896;46.714;17.322;2023-04-03T00:05:32;2.80;;;2.30;;
64520;SDS011;50896;46.714;17.322;2023-04-03T00:07:59;3.17;;;2.45;;
64520;SDS011;50896;46.714;17.322;2023-04-03T00:10:28;3.38;;;2.42;;
64520;SDS011;50896;46.714;17.322;2023-04-03T00:12:55;3.22;;;2.40;;
64520;SDS011;50896;46.714;17.322;2023-04-03T00:15:22;5.15;;;2.78;;
64520;SDS011;50896;46.714;17.322;2023-04-03T00:17:49;3.50;;;2.45;;
64520;SDS011;50896;46.714;17.322;2023-04-03T00:20:16;3.70;;;2.78;;
64520;SDS011;50896;46.714;17.322;2023-04-03T00:22:43;3.55;;;2.58;;
64520;SDS011;50896;46.714;17.322;2023-04-03T00:25:09;3.15;;;2.33;;
64520;SDS011;50896;46.714;17.322;2023-04-03T00:27:40;4.47;;;2.60;;
64520;SDS011;50896;46.714;17.322;2023-04-03T00:30:08;4.22;;;2.50;;
64520;SDS011;50896;46.714;17.322;2023-04-03T00:32:37;4.95;;;2.63;;
64520;SDS011;50896;46.714;17.322;2023-04-03T00:35:04;3.35;;;2.35;;
64520;SDS011;50896;46.714;17.322;2023-04-03T00:37:31;4.68;;;2.90;;
64520;SDS011;50896;46.714;17.322;2023-04-03T00:39:59;3.58;;;2.80;;
64520;SDS011;50896;46.714;17.322;2023-04-03T00:42:26;3.05;;;2.67;;
64520;SDS011;50896;46.714;17.322;2023-04-03T00:45:22;3.83;;;2.65;;
64520;SDS011;50896;46.714;17.322;2023-04-03T00:47:52;4.15;;;2.63;;
64520;SDS011;50896;46.714;17.322;2023-04-03T00:50:19;3.58;;;2.50;;
64520;SDS011;50896;46.714;17.322;2023-04-03T00:52:46;2.97;;;2.53;;
64520;SDS011;50896;46.714;17.322;2023-04-03T00:55:15;4.07;;;2.40;;
64520;SDS011;50896;46.714;17.322;2023-04-03T00:57:42;3.45;;;2.67;;
64520;SDS011;50896;46.714;17.322;2023-04-03T01:00:13;4.30;;;2.78;;
64520;SDS011;50896;46.714;17.322;2023-04-03T01:02:43;3.97;;;2.88;;
64520;SDS011;50896;46.714;17.322;2023-04-03T01:05:12;3.47;;;2.75;;
64520;SDS011;50896;46.714;17.322;2023-04-03T01:07:42;3.35;;;2.80;;
64520;SDS011;50896;46.714;17.322;2023-04-03T01:10:12;4.47;;;2.75;;
64520;SDS011;50896;46.714;17.322;2023-04-03T01:12:43;3.60;;;2.65;;
64520;SDS011;50896;46.714;17.322;2023-04-03T01:15:18;4.25;;;2.90;;
64520;SDS011;50896;46.714;17.322;2023-04-03T01:17:51;3.33;;;2.45;;
64520;SDS011;50896;46.714;17.322;2023-04-03T01:28:17;3.78;;;2.80;;
64520;SDS011;50896;46.714;17.322;2023-04-03T01:33:28;3.88;;;2.58;;
64520;SDS011;50896;46.714;17.322;2023-04-03T01:35:56;3.50;;;2.67;;
64520;SDS011;50896;46.714;17.322;2023-04-03T01:38:24;5.05;;;2.75;;
64520;SDS011;50896;46.714;17.322;2023-04-03T01:40:51;4.15;;;3.00;;
64520;SDS011;50896;46.714;17.322;2023-04-03T01:43:18;3.53;;;2.70;;
64520;SDS011;50896;46.714;17.322;2023-04-03T01:45:45;3.97;;;2.47;;
64520;SDS011;50896;46.714;17.322;2023-04-03T01:48:13;4.40;;;2.53;;
64520;SDS011;50896;46.714;17.322;2023-04-03T01:50:40;4.07;;;2.55;;
64520;SDS011;50896;46.714;17.322;2023-04-03T01:53:07;4.45;;;3.10;;
64520;SDS011;50896;46.714;17.322;2023-04-03T01:55:34;4.75;;;2.75;;
64520;SDS011;50896;46.714;17.322;2023-04-03T01:58:01;3.47;;;2.58;;
64520;SDS011;50896;46.714;17.322;2023-04-03T02:00:28;3.70;;;2.53;;
64520;SDS011;50896;46.714;17.322;2023-04-03T02:02:54;4.18;;;2.75;;
64520;SDS011;50896;46.714;17.322;2023-04-03T02:05:22;3.65;;;2.80;;
64520;SDS011;50896;46.714;17.322;2023-04-03T02:07:49;4.78;;;3.08;;
64520;SDS011;50896;46.714;17.322;2023-04-03T02:10:17;3.78;;;2.85;;
64520;SDS011;50896;46.714;17.322;2023-04-03T02:12:43;4.97;;;2.40;;
64520;SDS011;50896;46.714;17.322;2023-04-03T02:15:10;3.33;;;2.65;;
64520;SDS011;50896;46.714;17.322;2023-04-03T02:17:37;3.47;;;2.83;;
64520;SDS011;50896;46.714;17.322;2023-04-03T02:20:04;3.70;;;2.38;;
64520;SDS011;50896;46.714;17.322;2023-04-03T02:22:33;4.82;;;2.65;;
64520;SDS011;50896;46.714;17.322;2023-04-03T02:25:01;4.20;;;2.80;;
64520;SDS011;50896;46.714;17.322;2023-04-03T02:27:27;3.30;;;2.70;;
64520;SDS011;50896;46.714;17.322;2023-04-03T02:29:54;4.68;;;2.83;;
64520;SDS011;50896;46.714;17.322;2023-04-03T02:32:21;4.05;;;3.03;;
64520;SDS011;50896;46.714;17.322;2023-04-03T02:34:48;4.25;;;2.78;;
64520;SDS011;50896;46.714;17.322;2023-04-03T02:37:15;4.20;;;2.80;;
64520;SDS011;50896;46.714;17.322;2023-04-03T02:39:45;3.87;;;2.87;;
64520;SDS011;50896;46.714;17.322;2023-04-03T02:42:11;4.97;;;2.60;;
64520;SDS011;50896;46.714;17.322;2023-04-03T02:44:38;4.45;;;2.72;;
64520;SDS011;50896;46.714;17.322;2023-04-03T02:47:06;4.13;;;2.47;;
64520;SDS011;50896;46.714;17.322;2023-04-03T02:49:32;4.07;;;2.80;;
64520;SDS011;50896;46.714;17.322;2023-04-03T02:51:59;3.60;;;2.50;;
64520;SDS011;50896;46.714;17.322;2023-04-03T02:54:26;3.63;;;2.55;;
64520;SDS011;50896;46.714;17.322;2023-04-03T02:57:00;2.35;;;1.92;;
64520;SDS011;50896;46.714;17.322;2023-04-03T02:59:27;3.00;;;2.15;;
64520;SDS011;50896;46.714;17.322;2023-04-03T03:01:54;3.83;;;2.45;;
64520;SDS011;50896;46.714;17.322;2023-04-03T03:04:22;4.78;;;2.47;;
64520;SDS011;50896;46.714;17.322;2023-04-03T03:06:49;2.92;;;2.30;;
64520;SDS011;50896;46.714;17.322;2023-04-03T03:09:17;3.30;;;2.30;;
64520;SDS011;50896;46.714;17.322;2023-04-03T03:11:44;2.97;;;2.28;;
64520;SDS011;50896;46.714;17.322;2023-04-03T03:14:11;3.42;;;2.47;;
64520;SDS011;50896;46.714;17.322;2023-04-03T03:16:37;4.07;;;2.78;;
64520;SDS011;50896;46.714;17.322;2023-04-03T03:19:04;4.72;;;2.60;;
64520;SDS011;50896;46.714;17.322;2023-04-03T03:21:33;3.25;;;2.60;;
64520;SDS011;50896;46.714;17.322;2023-04-03T03:24:00;5.38;;;2.75;;
64520;SDS011;50896;46.714;17.322;2023-04-03T03:26:28;3.25;;;2.28;;
64520;SDS011;50896;46.714;17.322;2023-04-03T03:28:55;3.38;;;2.40;;
64520;SDS011;50896;46.714;17.322;2023-04-03T03:31:23;4.32;;;2.90;;
64520;SDS011;50896;46.714;17.322;2023-04-03T03:33:50;3.75;;;2.63;;
64520;SDS011;50896;46.714;17.322;2023-04-03T03:36:17;3.35;;;2.65;;
64520;SDS011;50896;46.714;17.322;2023-04-03T03:38:44;3.63;;;2.45;;
64520;SDS011;50896;46.714;17.322;2023-04-03T03:41:11;3.53;;;2.60;;
64520;SDS011;50896;46.714;17.322;2023-04-03T03:43:40;3.88;;;2.30;;
64520;SDS011;50896;46.714;17.322;2023-04-03T03:46:07;6.28;;;2.80;;
64520;SDS011;50896;46.714;17.322;2023-04-03T03:48:34;4.20;;;2.72;;
64520;SDS011;50896;46.714;17.322;2023-04-03T03:51:01;3.75;;;2.55;;
64520;SDS011;50896;46.714;17.322;2023-04-03T03:53:33;3.60;;;2.53;;
64520;SDS011;50896;46.714;17.322;2023-04-03T03:56:04;3.90;;;2.47;;
64520;SDS011;50896;46.714;17.322;2023-04-03T03:58:34;3.03;;;2.50;;
64520;SDS011;50896;46.714;17.322;2023-04-03T04:01:05;7.03;;;3.08;;
64520;SDS011;50896;46.714;17.322;2023-04-03T04:03:38;4.70;;;2.85;;
64520;SDS011;50896;46.714;17.322;2023-04-03T04:06:07;2.72;;;2.53;;
64520;SDS011;50896;46.714;17.322;2023-04-03T04:08:34;5.35;;;3.17;;
64520;SDS011;50896;46.714;17.322;2023-04-03T04:11:04;5.68;;;3.00;;
64520;SDS011;50896;46.714;17.322;2023-04-03T04:13:31;3.78;;;2.70;;
64520;SDS011;50896;46.714;17.322;2023-04-03T04:15:58;4.90;;;2.88;;
64520;SDS011;50896;46.714;17.322;2023-04-03T04:18:25;5.70;;;2.83;;
64520;SDS011;50896;46.714;17.322;2023-04-03T04:20:52;4.32;;;2.80;;
64520;SDS011;50896;46.714;17.322;2023-04-03T04:23:20;4.30;;;2.75;;
64520;SDS011;50896;46.714;17.322;2023-04-03T04:25:48;4.43;;;2.53;;
64520;SDS011;50896;46.714;17.322;2023-04-03T04:28:16;3.03;;;2.38;;
64520;SDS011;50896;46.714;17.322;2023-04-03T04:30:45;3.72;;;2.58;;
64520;SDS011;50896;46.714;17.322;2023-04-03T04:33:13;4.90;;;2.75;;
64520;SDS011;50896;46.714;17.322;2023-04-03T04:35:42;3.05;;;2.42;;
64520;SDS011;50896;46.714;17.322;2023-04-03T04:38:10;3.42;;;2.50;;
64520;SDS011;50896;46.714;17.322;2023-04-03T04:40:37;3.60;;;2.63;;
64520;SDS011;50896;46.714;17.322;2023-04-03T04:43:05;3.15;;;2.42;;
64520;SDS011;50896;46.714;17.322;2023-04-03T04:45:33;4.28;;;2.50;;
64520;SDS011;50896;46.714;17.322;2023-04-03T04:48:00;3.38;;;2.28;;
64520;SDS011;50896;46.714;17.322;2023-04-03T04:50:27;4.00;;;2.47;;
64520;SDS011;50896;46.714;17.322;2023-04-03T04:52:54;3.90;;;2.63;;
64520;SDS011;50896;46.714;17.322;2023-04-03T04:55:21;3.47;;;2.55;;
64520;SDS011;50896;46.714;17.322;2023-04-03T04:57:49;3.47;;;2.58;;
64520;SDS011;50896;46.714;17.322;2023-04-03T05:00:17;4.70;;;2.78;;
64520;SDS011;50896;46.714;17.322;2023-04-03T05:02:44;4.93;;;2.53;;
64520;SDS011;50896;46.714;17.322;2023-04-03T05:05:12;3.95;;;2.60;;
64520;SDS011;50896;46.714;17.322;2023-04-03T05:07:39;4.38;;;2.90;;
64520;SDS011;50896;46.714;17.322;2023-04-03T05:10:07;6.38;;;2.47;;
64520;SDS011;50896;46.714;17.322;2023-04-03T05:12:35;4.05;;;2.80;;
64520;SDS011;50896;46.714;17.322;2023-04-03T05:15:03;4.15;;;3.05;;
64520;SDS011;50896;46.714;17.322;2023-04-03T05:17:32;3.72;;;3.20;;
64520;SDS011;50896;46.714;17.322;2023-04-03T05:19:59;5.13;;;2.72;;
64520;SDS011;50896;46.714;17.322;2023-04-03T05:22:27;3.67;;;3.00;;
64520;SDS011;50896;46.714;17.322;2023-04-03T05:24:59;6.43;;;3.70;;
64520;SDS011;50896;46.714;17.322;2023-04-03T05:27:27;5.20;;;3.53;;
64520;SDS011;50896;46.714;17.322;2023-04-03T05:29:56;4.60;;;3.92;;
64520;SDS011;50896;46.714;17.322;2023-04-03T05:32:24;5.22;;;3.50;;
64520;SDS011;50896;46.714;17.322;2023-04-03T05:35:02;4.88;;;3.50;;
64520;SDS011;50896;46.714;17.322;2023-04-03T05:37:30;4.97;;;3.83;;
64520;SDS011;50896;46.714;17.322;2023-04-03T05:39:57;5.40;;;4.18;;
64520;SDS011;50896;46.714;17.322;2023-04-03T05:42:24;5.47;;;4.15;;
64520;SDS011;50896;46.714;17.322;2023-04-03T05:44:51;7.72;;;4.15;;
64520;SDS011;50896;46.714;17.322;2023-04-03T05:47:18;6.60;;;4.32;;
64520;SDS011;50896;46.714;17.322;2023-04-03T05:49:45;5.45;;;4.20;;
64520;SDS011;50896;46.714;17.322;2023-04-03T05:52:22;4.75;;;3.67;;
64520;SDS011;50896;46.714;17.322;2023-04-03T05:54:54;6.10;;;3.60;;
64520;SDS011;50896;46.714;17.322;2023-04-03T05:57:25;5.78;;;3.75;;
64520;SDS011;50896;46.714;17.322;2023-04-03T05:59:52;6.47;;;4.22;;
64520;SDS011;50896;46.714;17.322;2023-04-03T06:02:20;6.63;;;4.03;;
64520;SDS011;50896;46.714;17.322;2023-04-03T06:04:49;5.40;;;3.75;;
64520;SDS011;50896;46.714;17.322;2023-04-03T06:07:19;4.45;;;3.85;;
64520;SDS011;50896;46.714;17.322;2023-04-03T06:09:55;5.07;;;3.33;;
64520;SDS011;50896;46.714;17.322;2023-04-03T06:12:26;5.18;;;3.85;;
64520;SDS011;50896;46.714;17.322;2023-04-03T06:15:13;4.47;;;3.30;;
64520;SDS011;50896;46.714;17.322;2023-04-03T06:17:41;4.47;;;3.17;;
64520;SDS011;50896;46.714;17.322;2023-04-03T06:20:08;4.85;;;3.35;;
64520;SDS011;50896;46.714;17.322;2023-04-03T06:22:36;5.18;;;3.25;;
64520;SDS011;50896;46.714;17.322;2023-04-03T06:25:03;4.90;;;2.85;;
64520;SDS011;50896;46.714;17.322;2023-04-03T06:27:31;5.05;;;3.50;;
64520;SDS011;50896;46.714;17.322;2023-04-03T06:29:58;3.78;;;2.90;;
64520;SDS011;50896;46.714;17.322;2023-04-03T06:32:25;5.57;;;2.95;;
64520;SDS011;50896;46.714;17.322;2023-04-03T06:34:51;4.63;;;3.05;;
64520;SDS011;50896;46.714;17.322;2023-04-03T06:37:20;4.68;;;3.22;;
64520;SDS011;50896;46.714;17.322;2023-04-03T06:39:49;4.25;;;2.83;;
64520;SDS011;50896;46.714;17.322;2023-04-03T06:42:16;7.28;;;3.40;;
64520;SDS011;50896;46.714;17.322;2023-04-03T06:45:06;5.07;;;3.17;;
64520;SDS011;50896;46.714;17.322;2023-04-03T06:47:34;4.93;;;3.20;;
64520;SDS011;50896;46.714;17.322;2023-04-03T06:50:01;6.28;;;3.33;;
64520;SDS011;50896;46.714;17.322;2023-04-03T06:52:27;4.65;;;3.20;;
64520;SDS011;50896;46.714;17.322;2023-04-03T06:54:54;5.53;;;3.35;;
64520;SDS011;50896;46.714;17.322;2023-04-03T06:57:24;5.20;;;3.47;;
64520;SDS011;50896;46.714;17.322;2023-04-03T06:59:51;5.32;;;2.92;;
64520;SDS011;50896;46.714;17.322;2023-04-03T07:02:18;3.85;;;3.03;;
64520;SDS011;50896;46.714;17.322;2023-04-03T07:04:45;4.85;;;3.35;;
64520;SDS011;50896;46.714;17.322;2023-04-03T07:07:12;4.63;;;3.38;;
64520;SDS011;50896;46.714;17.322;2023-04-03T07:09:39;5.53;;;3.50;;
64520;SDS011;50896;46.714;17.322;2023-04-03T07:12:07;4.80;;;3.45;;
64520;SDS011;50896;46.714;17.322;2023-04-03T07:14:34;4.72;;;3.63;;
64520;SDS011;50896;46.714;17.322;2023-04-03T07:17:01;6.88;;;3.40;;
64520;SDS011;50896;46.714;17.322;2023-04-03T07:19:28;4.45;;;3.30;;
64520;SDS011;50896;46.714;17.322;2023-04-03T07:21:55;5.07;;;3.35;;
64520;SDS011;50896;46.714;17.322;2023-04-03T07:24:21;6.13;;;3.60;;
64520;SDS011;50896;46.714;17.322;2023-04-03T07:26:49;5.38;;;3.40;;
64520;SDS011;50896;46.714;17.322;2023-04-03T07:29:16;4.78;;;2.90;;
64520;SDS011;50896;46.714;17.322;2023-04-03T07:31:43;6.57;;;2.95;;
64520;SDS011;50896;46.714;17.322;2023-04-03T07:34:11;4.68;;;3.10;;
64520;SDS011;50896;46.714;17.322;2023-04-03T07:36:38;6.18;;;3.10;;
64520;SDS011;50896;46.714;17.322;2023-04-03T07:39:04;5.07;;;3.50;;
64520;SDS011;50896;46.714;17.322;2023-04-03T07:41:33;4.97;;;3.30;;
64520;SDS011;50896;46.714;17.322;2023-04-03T07:44:00;4.72;;;2.90;;
64520;SDS011;50896;46.714;17.322;2023-04-03T07:46:27;4.28;;;3.05;;
64520;SDS011;50896;46.714;17.322;2023-04-03T07:48:54;4.55;;;3.00;;
64520;SDS011;50896;46.714;17.322;2023-04-03T07:51:23;3.80;;;2.80;;
64520;SDS011;50896;46.714;17.322;2023-04-03T07:53:51;4.88;;;3.08;;
64520;SDS011;50896;46.714;17.322;2023-04-03T07:56:17;4.57;;;3.00;;
64520;SDS011;50896;46.714;17.322;2023-04-03T07:58:44;7.38;;;3.10;;
64520;SDS011;50896;46.714;17.322;2023-04-03T08:01:11;4.85;;;3.17;;
64520;SDS011;50896;46.714;17.322;2023-04-03T08:03:39;6.07;;;3.13;;
64520;SDS011;50896;46.714;17.322;2023-04-03T08:06:06;3.67;;;2.70;;
64520;SDS011;50896;46.714;17.322;2023-04-03T08:08:41;4.70;;;3.03;;
64520;SDS011;50896;46.714;17.322;2023-04-03T08:11:09;3.55;;;2.70;;
64520;SDS011;50896;46.714;17.322;2023-04-03T08:13:36;4.65;;;3.00;;
64520;SDS011;50896;46.714;17.322;2023-04-03T08:16:08;3.92;;;2.78;;
64520;SDS011;50896;46.714;17.322;2023-04-03T08:18:36;4.65;;;2.75;;
64520;SDS011;50896;46.714;17.322;2023-04-03T08:21:07;4.57;;;2.83;;
64520;SDS011;50896;46.714;17.322;2023-04-03T08:23:36;3.40;;;2.70;;
64520;SDS011;50896;46.714;17.322;2023-04-03T08:26:10;2.92;;;2.38;;
64520;SDS011;50896;46.714;17.322;2023-04-03T08:28:38;5.05;;;2.40;;
64520;SDS011;50896;46.714;17.322;2023-04-03T08:31:06;4.85;;;2.30;;
64520;SDS011;50896;46.714;17.322;2023-04-03T08:33:38;3.55;;;2.78;;
64520;SDS011;50896;46.714;17.322;2023-04-03T08:36:05;3.67;;;2.33;;
64520;SDS011;50896;46.714;17.322;2023-04-03T08:38:34;5.13;;;2.67;;
64520;SDS011;50896;46.714;17.322;2023-04-03T08:44:24;3.95;;;2.80;;
64520;SDS011;50896;46.714;17.322;2023-04-03T08:49:47;5.25;;;2.65;;
64520;SDS011;50896;46.714;17.322;2023-04-03T08:54:58;5.68;;;2.75;;
64520;SDS011;50896;46.714;17.322;2023-04-03T08:57:33;3.78;;;2.70;;
64520;SDS011;50896;46.714;17.322;2023-04-03T09:00:04;4.68;;;3.05;;
64520;SDS011;50896;46.714;17.322;2023-04-03T09:05:32;4.28;;;2.50;;
64520;SDS011;50896;46.714;17.322;2023-04-03T09:11:27;5.35;;;2.85;;
64520;SDS011;50896;46.714;17.322;2023-04-03T09:16:59;3.90;;;2.97;;
64520;SDS011;50896;46.714;17.322;2023-04-03T09:19:36;4.57;;;3.00;;
64520;SDS011;50896;46.714;17.322;2023-04-03T09:22:26;3.60;;;2.72;;
64520;SDS011;50896;46.714;17.322;2023-04-03T09:25:02;5.18;;;3.28;;
64520;SDS011;50896;46.714;17.322;2023-04-03T09:27:40;4.40;;;3.08;;
64520;SDS011;50896;46.714;17.322;2023-04-03T09:30:17;5.05;;;3.03;;
64520;SDS011;50896;46.714;17.322;2023-04-03T09:32:46;5.00;;;2.83;;
64520;SDS011;50896;46.714;17.322;2023-04-03T09:38:14;4.82;;;2.95;;
64520;SDS011;50896;46.714;17.322;2023-04-03T09:40:40;4.53;;;2.97;;
64520;SDS011;50896;46.714;17.322;2023-04-03T09:49:02;7.45;;;3.20;;
64520;SDS011;50896;46.714;17.322;2023-04-03T09:51:35;5.57;;;3.17;;
64520;SDS011;50896;46.714;17.322;2023-04-03T09:57:01;4.53;;;3.08;;
64520;SDS011;50896;46.714;17.322;2023-04-03T09:59:34;5.75;;;3.03;;
64520;SDS011;50896;46.714;17.322;2023-04-03T10:02:20;4.45;;;2.70;;
64520;SDS011;50896;46.714;17.322;2023-04-03T10:04:51;5.82;;;3.00;;
64520;SDS011;50896;46.714;17.322;2023-04-03T10:07:35;3.97;;;3.20;;
64520;SDS011;50896;46.714;17.322;2023-04-03T10:10:16;4.13;;;2.90;;
64520;SDS011;50896;46.714;17.322;2023-04-03T10:13:01;6.28;;;2.65;;
64520;SDS011;50896;46.714;17.322;2023-04-03T10:15:31;4.45;;;2.80;;
64520;SDS011;50896;46.714;17.322;2023-04-03T10:18:08;5.10;;;3.00;;
64520;SDS011;50896;46.714;17.322;2023-04-03T10:23:42;4.63;;;2.50;;
64520;SDS011;50896;46.714;17.322;2023-04-03T10:26:49;3.65;;;2.58;;
64520;SDS011;50896;46.714;17.322;2023-04-03T10:34:45;4.22;;;2.22;;
64520;SDS011;50896;46.714;17.322;2023-04-03T10:37:30;3.42;;;1.73;;
64520;SDS011;50896;46.714;17.322;2023-04-03T10:40:23;3.25;;;2.00;;
64520;SDS011;50896;46.714;17.322;2023-04-03T10:46:04;3.35;;;1.88;;
64520;SDS011;50896;46.714;17.322;2023-04-03T10:51:33;2.80;;;1.90;;
64520;SDS011;50896;46.714;17.322;2023-04-03T10:56:56;3.17;;;1.90;;
64520;SDS011;50896;46.714;17.322;2023-04-03T11:04:47;3.33;;;2.00;;
64520;SDS011;50896;46.714;17.322;2023-04-03T11:07:20;2.72;;;1.73;;
64520;SDS011;50896;46.714;17.322;2023-04-03T11:10:13;3.80;;;1.70;;
64520;SDS011;50896;46.714;17.322;2023-04-03T11:12:46;3.22;;;1.75;;
64520;SDS011;50896;46.714;17.322;2023-04-03T11:15:19;5.22;;;1.80;;
64520;SDS011;50896;46.714;17.322;2023-04-03T11:17:57;2.60;;;1.73;;
64520;SDS011;50896;46.714;17.322;2023-04-03T11:20:30;4.45;;;2.10;;
64520;SDS011;50896;46.714;17.322;2023-04-03T11:23:12;3.30;;;1.90;;
64520;SDS011;50896;46.714;17.322;2023-04-03T11:25:43;5.00;;;2.08;;
64520;SDS011;50896;46.714;17.322;2023-04-03T11:28:14;4.07;;;1.90;;
64520;SDS011;50896;46.714;17.322;2023-04-03T11:36:08;2.40;;;1.67;;
64520;SDS011;50896;46.714;17.322;2023-04-03T11:38:56;3.80;;;1.60;;
64520;SDS011;50896;46.714;17.322;2023-04-03T11:41:30;3.70;;;2.10;;
64520;SDS011;50896;46.714;17.322;2023-04-03T11:52:57;4.70;;;2.17;;
64520;SDS011;50896;46.714;17.322;2023-04-03T11:58:17;4.70;;;2.03;;
64520;SDS011;50896;46.714;17.322;2023-04-03T12:00:52;5.18;;;2.05;;
64520;SDS011;50896;46.714;17.322;2023-04-03T12:13:39;3.63;;;2.20;;
64520;SDS011;50896;46.714;17.322;2023-04-03T12:16:26;4.22;;;2.20;;
64520;SDS011;50896;46.714;17.322;2023-04-03T12:18:56;3.67;;;2.40;;
64520;SDS011;50896;46.714;17.322;2023-04-03T12:24:04;3.17;;;1.98;;
64520;SDS011;50896;46.714;17.322;2023-04-03T12:26:51;4.13;;;2.20;;
64520;SDS011;50896;46.714;17.322;2023-04-03T12:46:45;4.45;;;2.28;;
64520;SDS011;50896;46.714;17.322;2023-04-03T12:51:46;3.33;;;2.30;;
64520;SDS011;50896;46.714;17.322;2023-04-03T12:56:43;4.72;;;2.80;;
64520;SDS011;50896;46.714;17.322;2023-04-03T12:59:14;6.75;;;2.55;;
64520;SDS011;50896;46.714;17.322;2023-04-03T13:01:53;4.40;;;2.22;;
64520;SDS011;50896;46.714;17.322;2023-04-03T13:04:22;3.88;;;2.50;;
64520;SDS011;50896;46.714;17.322;2023-04-03T13:06:49;9.27;;;6.55;;
64520;SDS011;50896;46.714;17.322;2023-04-03T13:09:30;5.57;;;3.70;;
64520;SDS011;50896;46.714;17.322;2023-04-03T13:12:15;12.15;;;3.10;;
64520;SDS011;50896;46.714;17.322;2023-04-03T13:14:51;3.95;;;2.92;;
64520;SDS011;50896;46.714;17.322;2023-04-03T13:17:22;4.72;;;3.20;;
64520;SDS011;50896;46.714;17.322;2023-04-03T13:19:51;4.60;;;3.40;;
64520;SDS011;50896;46.714;17.322;2023-04-03T13:24:59;3.92;;;1.85;;
64520;SDS011;50896;46.714;17.322;2023-04-03T13:27:31;8.88;;;2.60;;
64520;SDS011;50896;46.714;17.322;2023-04-03T13:29:59;3.08;;;2.63;;
64520;SDS011;50896;46.714;17.322;2023-04-03T13:32:29;6.75;;;2.33;;
64520;SDS011;50896;46.714;17.322;2023-04-03T13:34:57;2.88;;;2.15;;
64520;SDS011;50896;46.714;17.322;2023-04-03T13:37:52;6.78;;;2.42;;
64520;SDS011;50896;46.714;17.322;2023-04-03T13:40:21;3.30;;;2.45;;
64520;SDS011;50896;46.714;17.322;2023-04-03T13:42:48;3.30;;;2.50;;
64520;SDS011;50896;46.714;17.322;2023-04-03T13:45:27;4.38;;;2.65;;
64520;SDS011;50896;46.714;17.322;2023-04-03T13:51:00;3.85;;;2.40;;
64520;SDS011;50896;46.714;17.322;2023-04-03T13:53:30;3.88;;;2.83;;
64520;SDS011;50896;46.714;17.322;2023-04-03T13:58:52;6.32;;;2.78;;
64520;SDS011;50896;46.714;17.322;2023-04-03T14:01:22;5.35;;;2.67;;
64520;SDS011;50896;46.714;17.322;2023-04-03T14:03:57;4.28;;;2.20;;
64520;SDS011;50896;46.714;17.322;2023-04-03T14:06:27;3.97;;;2.80;;
64520;SDS011;50896;46.714;17.322;2023-04-03T14:08:56;6.35;;;2.65;;
64520;SDS011;50896;46.714;17.322;2023-04-03T14:11:24;4.53;;;2.88;;
64520;SDS011;50896;46.714;17.322;2023-04-03T14:13:55;8.27;;;3.28;;
64520;SDS011;50896;46.714;17.322;2023-04-03T14:16:28;7.47;;;2.80;;
64520;SDS011;50896;46.714;17.322;2023-04-03T14:18:57;5.43;;;3.03;;
64520;SDS011;50896;46.714;17.322;2023-04-03T14:21:24;7.25;;;2.90;;
64520;SDS011;50896;46.714;17.322;2023-04-03T14:23:51;6.80;;;3.05;;
64520;SDS011;50896;46.714;17.322;2023-04-03T14:26:22;5.35;;;3.28;;
64520;SDS011;50896;46.714;17.322;2023-04-03T14:28:52;4.78;;;2.88;;
64520;SDS011;50896;46.714;17.322;2023-04-03T14:31:20;6.53;;;3.00;;
64520;SDS011;50896;46.714;17.322;2023-04-03T14:38:46;4.03;;;2.80;;
64520;SDS011;50896;46.714;17.322;2023-04-03T14:41:15;4.18;;;2.88;;
64520;SDS011;50896;46.714;17.322;2023-04-03T14:43:44;3.90;;;2.47;;
64520;SDS011;50896;46.714;17.322;2023-04-03T14:46:12;4.63;;;3.30;;
64520;SDS011;50896;46.714;17.322;2023-04-03T14:48:44;5.75;;;3.03;;
64520;SDS011;50896;46.714;17.322;2023-04-03T14:51:11;6.28;;;3.30;;
64520;SDS011;50896;46.714;17.322;2023-04-03T14:53:39;12.43;;;3.13;;
64520;SDS011;50896;46.714;17.322;2023-04-03T14:56:11;7.22;;;3.03;;
64520;SDS011;50896;46.714;17.322;2023-04-03T14:58:54;4.05;;;3.08;;
64520;SDS011;50896;46.714;17.322;2023-04-03T15:01:23;11.65;;;3.35;;
64520;SDS011;50896;46.714;17.322;2023-04-03T15:03:51;4.93;;;3.05;;
64520;SDS011;50896;46.714;17.322;2023-04-03T15:06:18;4.50;;;2.75;;
64520;SDS011;50896;46.714;17.322;2023-04-03T15:08:46;9.05;;;3.08;;
64520;SDS011;50896;46.714;17.322;2023-04-03T15:11:14;6.60;;;3.20;;
64520;SDS011;50896;46.714;17.322;2023-04-03T15:13:41;5.30;;;3.15;;
64520;SDS011;50896;46.714;17.322;2023-04-03T15:16:15;6.57;;;3.35;;
64520;SDS011;50896;46.714;17.322;2023-04-03T15:18:44;6.03;;;3.17;;
64520;SDS011;50896;46.714;17.322;2023-04-03T15:21:12;5.80;;;3.35;;
64520;SDS011;50896;46.714;17.322;2023-04-03T15:23:40;7.00;;;3.55;;
64520;SDS011;50896;46.714;17.322;2023-04-03T15:26:07;7.50;;;3.53;;
64520;SDS011;50896;46.714;17.322;2023-04-03T15:28:35;9.55;;;3.42;;
64520;SDS011;50896;46.714;17.322;2023-04-03T15:33:31;9.02;;;3.85;;
64520;SDS011;50896;46.714;17.322;2023-04-03T15:35:59;6.90;;;3.47;;
64520;SDS011;50896;46.714;17.322;2023-04-03T15:38:42;6.85;;;3.10;;
64520;SDS011;50896;46.714;17.322;2023-04-03T15:41:09;4.47;;;3.25;;
64520;SDS011;50896;46.714;17.322;2023-04-03T15:43:35;6.80;;;3.55;;
64520;SDS011;50896;46.714;17.322;2023-04-03T15:46:03;3.83;;;2.67;;
64520;SDS011;50896;46.714;17.322;2023-04-03T15:48:30;9.07;;;3.10;;
64520;SDS011;50896;46.714;17.322;2023-04-03T15:50:57;6.18;;;3.95;;
64520;SDS011;50896;46.714;17.322;2023-04-03T15:53:24;7.50;;;3.33;;
64520;SDS011;50896;46.714;17.322;2023-04-03T15:55:51;8.40;;;3.30;;
64520;SDS011;50896;46.714;17.322;2023-04-03T15:58:18;5.70;;;3.10;;
64520;SDS011;50896;46.714;17.322;2023-04-03T16:00:45;6.13;;;3.03;;
64520;SDS011;50896;46.714;17.322;2023-04-03T16:03:14;8.15;;;3.40;;
64520;SDS011;50896;46.714;17.322;2023-04-03T16:05:43;6.47;;;3.15;;
64520;SDS011;50896;46.714;17.322;2023-04-03T16:08:10;8.60;;;2.90;;
64520;SDS011;50896;46.714;17.322;2023-04-03T16:10:38;5.28;;;2.97;;
64520;SDS011;50896;46.714;17.322;2023-04-03T16:13:06;4.03;;;2.60;;
64520;SDS011;50896;46.714;17.322;2023-04-03T16:15:33;5.15;;;2.72;;
64520;SDS011;50896;46.714;17.322;2023-04-03T16:18:01;8.13;;;3.15;;
64520;SDS011;50896;46.714;17.322;2023-04-03T16:20:29;4.70;;;2.70;;
64520;SDS011;50896;46.714;17.322;2023-04-03T16:22:57;4.85;;;3.13;;
64520;SDS011;50896;46.714;17.322;2023-04-03T16:25:26;4.50;;;2.60;;
64520;SDS011;50896;46.714;17.322;2023-04-03T16:27:53;4.05;;;2.80;;
64520;SDS011;50896;46.714;17.322;2023-04-03T16:30:20;6.38;;;3.17;;
64520;SDS011;50896;46.714;17.322;2023-04-03T16:32:47;3.88;;;2.60;;
64520;SDS011;50896;46.714;17.322;2023-04-03T16:35:14;4.03;;;2.58;;
64520;SDS011;50896;46.714;17.322;2023-04-03T16:37:41;4.45;;;2.80;;
64520;SDS011;50896;46.714;17.322;2023-04-03T16:40:08;6.95;;;2.95;;
64520;SDS011;50896;46.714;17.322;2023-04-03T16:42:36;3.40;;;2.40;;
64520;SDS011;50896;46.714;17.322;2023-04-03T16:45:04;4.72;;;2.35;;
64520;SDS011;50896;46.714;17.322;2023-04-03T16:47:32;5.75;;;2.60;;
64520;SDS011;50896;46.714;17.322;2023-04-03T16:49:59;5.32;;;2.70;;
64520;SDS011;50896;46.714;17.322;2023-04-03T16:52:26;4.95;;;2.60;;
64520;SDS011;50896;46.714;17.322;2023-04-03T16:54:53;4.80;;;2.95;;
64520;SDS011;50896;46.714;17.322;2023-04-03T16:57:22;4.63;;;2.78;;
64520;SDS011;50896;46.714;17.322;2023-04-03T16:59:51;7.07;;;2.60;;